sensor_id;sensor_type;location;lat;lon;timestamp;pressure;altitude;pressure_sealevel;temperature;humidity
83843;BME280;73869;52.336;21.182;2024-03-06T00:00:37;100891.34;;;5.97;100.00
83843;BME280;73869;52.336;21.182;2024-03-06T00:03:04;100903.28;;;6.02;100.00
83843;BME280;73869;52.336;21.182;2024-03-06T00:05:31;100901.41;;;6.03;100.00
83843;BME280;73869;52.336;21.182;2024-03-06T00:07:59;100909.50;;;6.03;100.00
83843;BME280;73869;52.336;21.182;2024-03-06T00:10:28;100912.56;;;6.00;100.00
83843;BME280;73869;52.336;21.182;2024-03-06T00:12:55;100910.88;;;5.99;100.00
83843;BME280;73869;52.336;21.182;2024-03-06T00:15:22;100914.88;;;6.03;100.00
83843;BME280;73869;52.336;21.182;2024-03-06T00:17:48;100903.97;;;5.96;100.00
83843;BME280;73869;52.336;21.182;2024-03-06T00:20:15;100910.69;;;6.00;100.00
83843;BME280;73869;52.336;21.182;2024-03-06T00:22:43;100911.69;;;5.99;100.00
83843;BME280;73869;52.336;21.182;2024-03-06T00:25:11;100922.66;;;5.98;100.00
83843;BME280;73869;52.336;21.182;2024-03-06T00:27:38;100916.09;;;6.00;100.00
83843;BME280;73869;52.336;21.182;2024-03-06T00:30:06;100916.75;;;6.02;100.00
83843;BME280;73869;52.336;21.182;2024-03-06T00:32:33;100921.97;;;6.04;100.00
83843;BME280;73869;52.336;21.182;2024-03-06T00:35:00;100918.91;;;6.07;100.00
83843;BME280;73869;52.336;21.182;2024-03-06T00:37:26;100922.28;;;6.09;100.00
83843;BME280;73869;52.336;21.182;2024-03-06T00:39:53;100923.28;;;6.08;100.00
83843;BME280;73869;52.336;21.182;2024-03-06T00:42:21;100924.25;;;6.15;100.00
83843;BME280;73869;52.336;21.182;2024-03-06T00:44:48;100933.34;;;6.14;100.00
83843;BME280;73869;52.336;21.182;2024-03-06T00:47:15;100922.75;;;6.12;100.00
83843;BME280;73869;52.336;21.182;2024-03-06T00:49:41;100925.44;;;6.12;100.00
83843;BME280;73869;52.336;21.182;2024-03-06T00:52:08;100938.28;;;6.10;100.00
83843;BME280;73869;52.336;21.182;2024-03-06T00:54:35;100931.19;;;6.09;100.00
83843;BME280;73869;52.336;21.182;2024-03-06T00:57:02;100930.19;;;6.10;100.00
83843;BME280;73869;52.336;21.182;2024-03-06T00:59:30;100937.75;;;6.15;100.00
83843;BME280;73869;52.336;21.182;2024-03-06T01:01:57;100936.53;;;6.17;100.00
83843;BME280;73869;52.336;21.182;2024-03-06T01:04:24;100936.84;;;6.22;100.00
83843;BME280;73869;52.336;21.182;2024-03-06T01:06:50;100939.53;;;6.22;100.00
83843;BME280;73869;52.336;21.182;2024-03-06T01:09:18;100942.72;;;6.26;100.00
83843;BME280;73869;52.336;21.182;2024-03-06T01:11:44;100936.16;;;6.20;100.00
83843;BME280;73869;52.336;21.182;2024-03-06T01:14:12;100944.13;;;6.22;100.00
83843;BME280;73869;52.336;21.182;2024-03-06T01:16:40;100947.25;;;6.25;100.00
83843;BME280;73869;52.336;21.182;2024-03-06T01:19:07;100947.38;;;6.32;100.00
83843;BME280;73869;52.336;21.182;2024-03-06T01:21:33;100946.41;;;6.33;100.00
83843;BME280;73869;52.336;21.182;2024-03-06T01:24:01;100938.53;;;6.23;100.00
83843;BME280;73869;52.336;21.182;2024-03-06T01:26:28;100940.88;;;6.26;100.00
83843;BME280;73869;52.336;21.182;2024-03-06T01:28:54;100952.03;;;6.23;100.00
83843;BME280;73869;52.336;21.182;2024-03-06T01:31:21;100951.72;;;6.18;100.00
83843;BME280;73869;52.336;21.182;2024-03-06T01:33:49;100954.09;;;6.13;100.00
83843;BME280;73869;52.336;21.182;2024-03-06T01:36:16;100958.09;;;6.17;100.00
83843;BME280;73869;52.336;21.182;2024-03-06T01:38:42;100961.84;;;6.16;100.00
83843;BME280;73869;52.336;21.182;2024-03-06T01:41:11;100954.91;;;6.14;100.00
83843;BME280;73869;52.336;21.182;2024-03-06T01:43:38;100954.28;;;6.12;100.00
83843;BME280;73869;52.336;21.182;2024-03-06T01:46:05;100956.97;;;6.12;100.00
83843;BME280;73869;52.336;21.182;2024-03-06T01:48:33;100957.84;;;6.04;100.00
83843;BME280;73869;52.336;21.182;2024-03-06T01:51:02;100970.69;;;6.02;100.00
83843;BME280;73869;52.336;21.182;2024-03-06T01:53:31;100966.59;;;6.06;100.00
83843;BME280;73869;52.336;21.182;2024-03-06T01:55:59;100973.38;;;6.02;100.00
83843;BME280;73869;52.336;21.182;2024-03-06T01:58:26;100966.28;;;6.01;100.00
83843;BME280;73869;52.336;21.182;2024-03-06T02:00:54;100970.69;;;6.02;100.00
83843;BME280;73869;52.336;21.182;2024-03-06T02:03:21;100970.03;;;6.00;100.00
83843;BME280;73869;52.336;21.182;2024-03-06T02:05:48;100975.09;;;5.95;100.00
83843;BME280;73869;52.336;21.182;2024-03-06T02:08:17;100971.88;;;6.00;100.00
83843;BME280;73869;52.336;21.182;2024-03-06T02:10:44;100976.22;;;6.01;100.00
83843;BME280;73869;52.336;21.182;2024-03-06T02:13:11;100975.41;;;6.00;100.00
83843;BME280;73869;52.336;21.182;2024-03-06T02:15:38;100973.06;;;5.97;100.00
83843;BME280;73869;52.336;21.182;2024-03-06T02:18:05;100974.25;;;5.95;100.00
83843;BME280;73869;52.336;21.182;2024-03-06T02:20:33;100972.22;;;5.97;100.00
83843;BME280;73869;52.336;21.182;2024-03-06T02:23:00;100968.84;;;5.95;100.00
83843;BME280;73869;52.336;21.182;2024-03-06T02:25:28;100968.84;;;5.95;100.00
83843;BME280;73869;52.336;21.182;2024-03-06T02:27:54;100969.88;;;5.94;100.00
83843;BME280;73869;52.336;21.182;2024-03-06T02:30:21;100961.78;;;5.94;100.00
83843;BME280;73869;52.336;21.182;2024-03-06T02:32:48;100972.09;;;5.90;100.00
83843;BME280;73869;52.336;21.182;2024-03-06T02:35:15;100977.66;;;5.89;100.00
83843;BME280;73869;52.336;21.182;2024-03-06T02:37:43;100970.75;;;5.86;100.00
83843;BME280;73869;52.336;21.182;2024-03-06T02:40:10;100973.78;;;5.83;100.00
83843;BME280;73869;52.336;21.182;2024-03-06T02:42:37;100977.84;;;5.87;100.00
83843;BME280;73869;52.336;21.182;2024-03-06T02:45:06;100981.19;;;5.89;100.00
83843;BME280;73869;52.336;21.182;2024-03-06T02:47:33;100976.13;;;5.86;100.00
83843;BME280;73869;52.336;21.182;2024-03-06T02:50:00;100979.84;;;5.85;100.00
83843;BME280;73869;52.336;21.182;2024-03-06T02:52:26;100983.72;;;5.83;100.00
83843;BME280;73869;52.336;21.182;2024-03-06T02:54:54;100974.47;;;5.77;100.00
83843;BME280;73869;52.336;21.182;2024-03-06T02:57:21;100979.19;;;5.75;100.00
83843;BME280;73869;52.336;21.182;2024-03-06T02:59:48;100973.97;;;5.74;100.00
83843;BME280;73869;52.336;21.182;2024-03-06T03:02:15;100987.09;;;5.77;100.00
83843;BME280;73869;52.336;21.182;2024-03-06T03:04:42;100979.53;;;5.72;100.00
83843;BME280;73869;52.336;21.182;2024-03-06T03:07:09;100985.75;;;5.81;100.00
83843;BME280;73869;52.336;21.182;2024-03-06T03:09:36;100982.06;;;5.74;100.00
83843;BME280;73869;52.336;21.182;2024-03-06T03:12:05;100986.94;;;5.70;100.00
83843;BME280;73869;52.336;21.182;2024-03-06T03:14:31;100983.94;;;5.65;100.00
83843;BME280;73869;52.336;21.182;2024-03-06T03:16:59;100990.50;;;5.71;100.00
83843;BME280;73869;52.336;21.182;2024-03-06T03:19:26;100993.72;;;5.66;100.00
83843;BME280;73869;52.336;21.182;2024-03-06T03:21:53;100996.91;;;5.62;100.00
83843;BME280;73869;52.336;21.182;2024-03-06T03:24:20;100991.34;;;5.63;100.00
83843;BME280;73869;52.336;21.182;2024-03-06T03:26:47;100998.59;;;5.63;100.00
83843;BME280;73869;52.336;21.182;2024-03-06T03:29:15;100991.06;;;5.58;100.00
83843;BME280;73869;52.336;21.182;2024-03-06T03:31:42;100999.94;;;5.67;100.00
83843;BME280;73869;52.336;21.182;2024-03-06T03:34:08;101012.75;;;5.65;100.00
83843;BME280;73869;52.336;21.182;2024-03-06T03:36:40;101003.16;;;5.54;100.00
83843;BME280;73869;52.336;21.182;2024-03-06T03:39:07;101005.53;;;5.49;100.00
83843;BME280;73869;52.336;21.182;2024-03-06T03:41:43;101001.69;;;5.52;100.00
83843;BME280;73869;52.336;21.182;2024-03-06T03:44:10;101006.88;;;5.53;100.00
83843;BME280;73869;52.336;21.182;2024-03-06T03:46:38;101008.75;;;5.44;100.00
83843;BME280;73869;52.336;21.182;2024-03-06T03:49:05;101008.09;;;5.42;100.00
83843;BME280;73869;52.336;21.182;2024-03-06T03:51:32;101011.44;;;5.44;100.00
83843;BME280;73869;52.336;21.182;2024-03-06T03:53:58;101007.91;;;5.44;100.00
83843;BME280;73869;52.336;21.182;2024-03-06T03:56:25;101016.66;;;5.46;100.00
83843;BME280;73869;52.336;21.182;2024-03-06T03:58:52;101017.00;;;5.43;99.72
83843;BME280;73869;52.336;21.182;2024-03-06T04:01:19;101014.97;;;5.45;99.73
83843;BME280;73869;52.336;21.182;2024-03-06T04:03:47;101026.75;;;5.44;98.85
83843;BME280;73869;52.336;21.182;2024-03-06T04:06:14;101021.75;;;5.33;99.63
83843;BME280;73869;52.336;21.182;2024-03-06T04:08:41;101014.16;;;5.36;100.00
83843;BME280;73869;52.336;21.182;2024-03-06T04:11:08;101020.88;;;5.40;99.30
83843;BME280;73869;52.336;21.182;2024-03-06T04:13:36;101024.41;;;5.41;99.34
83843;BME280;73869;52.336;21.182;2024-03-06T04:16:03;101030.66;;;5.33;99.20
83843;BME280;73869;52.336;21.182;2024-03-06T04:18:31;101011.97;;;5.24;99.59
83843;BME280;73869;52.336;21.182;2024-03-06T04:21:02;101020.38;;;5.29;99.86
83843;BME280;73869;52.336;21.182;2024-03-06T04:23:29;101027.97;;;5.33;99.65
83843;BME280;73869;52.336;21.182;2024-03-06T04:25:56;101025.44;;;5.32;99.56
83843;BME280;73869;52.336;21.182;2024-03-06T04:28:23;101021.91;;;5.31;100.00
83843;BME280;73869;52.336;21.182;2024-03-06T04:30:49;101035.56;;;5.22;99.63
83843;BME280;73869;52.336;21.182;2024-03-06T04:33:16;101032.88;;;5.22;100.00
83843;BME280;73869;52.336;21.182;2024-03-06T04:35:43;101029.16;;;5.23;100.00
83843;BME280;73869;52.336;21.182;2024-03-06T04:38:11;101040.59;;;5.25;99.91
83843;BME280;73869;52.336;21.182;2024-03-06T04:40:39;101032.88;;;5.22;100.00
83843;BME280;73869;52.336;21.182;2024-03-06T04:43:05;101048.00;;;5.23;100.00
83843;BME280;73869;52.336;21.182;2024-03-06T04:45:32;101047.31;;;5.21;100.00
83843;BME280;73869;52.336;21.182;2024-03-06T04:47:59;101038.25;;;5.22;99.53
83843;BME280;73869;52.336;21.182;2024-03-06T04:50:26;101041.75;;;5.22;100.00
83843;BME280;73869;52.336;21.182;2024-03-06T04:52:53;101047.31;;;5.21;100.00
83843;BME280;73869;52.336;21.182;2024-03-06T04:55:22;101046.66;;;5.19;99.68
83843;BME280;73869;52.336;21.182;2024-03-06T04:57:51;101047.84;;;5.16;99.74
83843;BME280;73869;52.336;21.182;2024-03-06T05:00:18;101054.25;;;5.23;100.00
83843;BME280;73869;52.336;21.182;2024-03-06T05:02:45;101059.81;;;5.14;99.91
83843;BME280;73869;52.336;21.182;2024-03-06T05:05:14;101056.44;;;5.12;99.23
83843;BME280;73869;52.336;21.182;2024-03-06T05:07:41;101066.84;;;5.15;100.00
83843;BME280;73869;52.336;21.182;2024-03-06T05:10:08;101066.34;;;5.19;98.85
83843;BME280;73869;52.336;21.182;2024-03-06T05:12:36;101065.34;;;5.20;99.47
83843;BME280;73869;52.336;21.182;2024-03-06T05:15:03;101075.63;;;5.09;99.82
83843;BME280;73869;52.336;21.182;2024-03-06T05:17:30;101069.56;;;5.07;98.44
83843;BME280;73869;52.336;21.182;2024-03-06T05:19:57;101075.28;;;5.04;100.00
83843;BME280;73869;52.336;21.182;2024-03-06T05:22:24;101074.44;;;5.03;98.09
83843;BME280;73869;52.336;21.182;2024-03-06T05:24:51;101079.97;;;5.02;99.56
83843;BME280;73869;52.336;21.182;2024-03-06T05:27:19;101078.78;;;4.96;98.83
83843;BME280;73869;52.336;21.182;2024-03-06T05:29:47;101079.47;;;4.90;98.68
83843;BME280;73869;52.336;21.182;2024-03-06T05:32:13;101083.66;;;4.93;98.25
83843;BME280;73869;52.336;21.182;2024-03-06T05:34:40;101084.84;;;4.98;97.75
83843;BME280;73869;52.336;21.182;2024-03-06T05:37:07;101088.41;;;4.99;97.90
83843;BME280;73869;52.336;21.182;2024-03-06T05:39:34;101086.03;;;4.96;98.23
83843;BME280;73869;52.336;21.182;2024-03-06T05:42:01;101082.66;;;4.94;98.55
83843;BME280;73869;52.336;21.182;2024-03-06T05:44:29;101091.91;;;4.99;96.29
83843;BME280;73869;52.336;21.182;2024-03-06T05:46:59;101093.09;;;4.97;97.22
83843;BME280;73869;52.336;21.182;2024-03-06T05:49:26;101104.03;;;4.95;98.05
83843;BME280;73869;52.336;21.182;2024-03-06T05:51:53;101099.16;;;4.91;98.46
83843;BME280;73869;52.336;21.182;2024-03-06T05:54:20;101106.03;;;4.93;97.61
83843;BME280;73869;52.336;21.182;2024-03-06T05:56:47;101113.09;;;4.94;97.19
83843;BME280;73869;52.336;21.182;2024-03-06T05:59:15;101118.00;;;4.91;96.95
83843;BME280;73869;52.336;21.182;2024-03-06T06:01:41;101113.94;;;4.87;97.17
83843;BME280;73869;52.336;21.182;2024-03-06T06:04:10;101109.91;;;4.83;96.62
83843;BME280;73869;52.336;21.182;2024-03-06T06:06:37;101120.00;;;4.89;96.43
83843;BME280;73869;52.336;21.182;2024-03-06T06:09:04;101114.09;;;4.85;96.74
83843;BME280;73869;52.336;21.182;2024-03-06T06:11:31;101120.50;;;4.84;95.53
83843;BME280;73869;52.336;21.182;2024-03-06T06:13:58;101125.03;;;4.92;95.47
83843;BME280;73869;52.336;21.182;2024-03-06T06:16:25;101123.19;;;4.84;97.00
83843;BME280;73869;52.336;21.182;2024-03-06T06:18:52;101129.56;;;4.91;95.23
83843;BME280;73869;52.336;21.182;2024-03-06T06:21:20;101129.91;;;4.88;94.58
83843;BME280;73869;52.336;21.182;2024-03-06T06:23:47;101129.41;;;4.93;94.75
83843;BME280;73869;52.336;21.182;2024-03-06T06:26:14;101132.09;;;4.93;95.19
83843;BME280;73869;52.336;21.182;2024-03-06T06:28:40;101132.78;;;4.87;94.02
83843;BME280;73869;52.336;21.182;2024-03-06T06:31:07;101129.06;;;4.88;94.87
83843;BME280;73869;52.336;21.182;2024-03-06T06:33:34;101142.19;;;4.83;96.33
83843;BME280;73869;52.336;21.182;2024-03-06T06:36:01;101140.84;;;4.79;95.48
83843;BME280;73869;52.336;21.182;2024-03-06T06:38:29;101146.56;;;4.84;95.43
83843;BME280;73869;52.336;21.182;2024-03-06T06:40:56;101148.25;;;4.93;94.53
83843;BME280;73869;52.336;21.182;2024-03-06T06:43:22;101149.59;;;4.81;93.57
83843;BME280;73869;52.336;21.182;2024-03-06T06:45:49;101146.22;;;4.79;94.88
83843;BME280;73869;52.336;21.182;2024-03-06T06:48:16;101152.28;;;4.81;93.97
83843;BME280;73869;52.336;21.182;2024-03-06T06:50:44;101147.25;;;4.86;93.44
83843;BME280;73869;52.336;21.182;2024-03-06T06:53:13;101156.13;;;4.78;94.11
83843;BME280;73869;52.336;21.182;2024-03-06T06:55:41;101152.63;;;4.86;93.96
83843;BME280;73869;52.336;21.182;2024-03-06T06:58:08;101158.47;;;4.81;93.63
83843;BME280;73869;52.336;21.182;2024-03-06T07:00:35;101162.72;;;4.84;94.87
83843;BME280;73869;52.336;21.182;2024-03-06T07:03:03;101157.00;;;4.87;93.79
83843;BME280;73869;52.336;21.182;2024-03-06T07:05:30;101161.88;;;4.91;93.83
83843;BME280;73869;52.336;21.182;2024-03-06T07:07:57;101166.59;;;4.89;93.52
83843;BME280;73869;52.336;21.182;2024-03-06T07:10:23;101165.22;;;4.85;93.75
83843;BME280;73869;52.336;21.182;2024-03-06T07:12:51;101172.09;;;4.80;93.19
83843;BME280;73869;52.336;21.182;2024-03-06T07:15:18;101171.13;;;4.81;93.66
83843;BME280;73869;52.336;21.182;2024-03-06T07:17:45;101181.56;;;4.84;94.12
83843;BME280;73869;52.336;21.182;2024-03-06T07:20:12;101182.84;;;4.72;94.58
83843;BME280;73869;52.336;21.182;2024-03-06T07:22:39;101178.16;;;4.74;94.12
83843;BME280;73869;52.336;21.182;2024-03-06T07:25:06;101174.97;;;4.78;94.31
83843;BME280;73869;52.336;21.182;2024-03-06T07:27:33;101180.69;;;4.83;93.73
83843;BME280;73869;52.336;21.182;2024-03-06T07:30:01;101181.88;;;4.81;94.20
83843;BME280;73869;52.336;21.182;2024-03-06T07:32:28;101182.03;;;4.71;93.86
83843;BME280;73869;52.336;21.182;2024-03-06T07:34:55;101193.09;;;4.68;94.30
83843;BME280;73869;52.336;21.182;2024-03-06T07:37:23;101183.22;;;4.85;94.39
83843;BME280;73869;52.336;21.182;2024-03-06T07:39:53;101188.81;;;4.99;94.25
83843;BME280;73869;52.336;21.182;2024-03-06T07:42:20;101180.19;;;4.88;94.22
83843;BME280;73869;52.336;21.182;2024-03-06T07:44:47;101200.94;;;4.95;92.92
83843;BME280;73869;52.336;21.182;2024-03-06T07:47:15;101196.69;;;4.93;93.62
83843;BME280;73869;52.336;21.182;2024-03-06T07:49:42;101200.25;;;4.93;93.80
83843;BME280;73869;52.336;21.182;2024-03-06T07:52:09;101204.59;;;4.94;93.76
83843;BME280;73869;52.336;21.182;2024-03-06T07:54:36;101201.09;;;4.94;93.35
83843;BME280;73869;52.336;21.182;2024-03-06T07:57:05;101206.47;;;4.94;92.99
83843;BME280;73869;52.336;21.182;2024-03-06T07:59:31;101207.47;;;4.93;92.27
83843;BME280;73869;52.336;21.182;2024-03-06T08:01:58;101211.03;;;5.01;93.09
83843;BME280;73869;52.336;21.182;2024-03-06T08:04:26;101205.97;;;4.90;90.05
83843;BME280;73869;52.336;21.182;2024-03-06T08:06:53;101204.59;;;4.86;90.57
83843;BME280;73869;52.336;21.182;2024-03-06T08:09:20;101215.91;;;5.06;92.44
83843;BME280;73869;52.336;21.182;2024-03-06T08:11:46;101219.63;;;5.05;91.59
83843;BME280;73869;52.336;21.182;2024-03-06T08:14:14;101220.94;;;5.01;92.45
83843;BME280;73869;52.336;21.182;2024-03-06T08:16:42;101226.69;;;5.06;92.41
83843;BME280;73869;52.336;21.182;2024-03-06T08:19:09;101222.31;;;5.05;92.29
83843;BME280;73869;52.336;21.182;2024-03-06T08:21:37;101230.59;;;5.11;91.33
83843;BME280;73869;52.336;21.182;2024-03-06T08:24:04;101222.84;;;5.16;91.31
83843;BME280;73869;52.336;21.182;2024-03-06T08:26:31;101229.97;;;5.33;91.52
83843;BME280;73869;52.336;21.182;2024-03-06T08:28:58;101232.81;;;5.32;90.85
83843;BME280;73869;52.336;21.182;2024-03-06T08:31:25;101231.13;;;5.23;90.99
83843;BME280;73869;52.336;21.182;2024-03-06T08:33:51;101239.00;;;5.16;89.75
83843;BME280;73869;52.336;21.182;2024-03-06T08:36:19;101240.47;;;5.03;90.49
83843;BME280;73869;52.336;21.182;2024-03-06T08:38:48;101233.59;;;5.08;90.45
83843;BME280;73869;52.336;21.182;2024-03-06T08:41:15;101235.13;;;5.11;89.61
83843;BME280;73869;52.336;21.182;2024-03-06T08:43:41;101238.63;;;5.03;89.61
83843;BME280;73869;52.336;21.182;2024-03-06T08:46:08;101241.19;;;5.13;89.79
83843;BME280;73869;52.336;21.182;2024-03-06T08:48:35;101240.50;;;5.11;88.69
83843;BME280;73869;52.336;21.182;2024-03-06T08:51:02;101250.13;;;5.13;89.04
83843;BME280;73869;52.336;21.182;2024-03-06T08:53:35;101247.56;;;5.04;88.28
83843;BME280;73869;52.336;21.182;2024-03-06T08:56:04;101247.41;;;5.05;88.32
83843;BME280;73869;52.336;21.182;2024-03-06T08:58:31;101264.72;;;5.11;88.33
83843;BME280;73869;52.336;21.182;2024-03-06T09:00:58;101253.59;;;5.06;87.60
83843;BME280;73869;52.336;21.182;2024-03-06T09:03:25;101263.06;;;5.10;86.71
83843;BME280;73869;52.336;21.182;2024-03-06T09:05:52;101264.06;;;5.09;87.45
83843;BME280;73869;52.336;21.182;2024-03-06T09:08:18;101264.72;;;5.11;86.01
83843;BME280;73869;52.336;21.182;2024-03-06T09:10:45;101269.09;;;5.04;86.29
83843;BME280;73869;52.336;21.182;2024-03-06T09:13:13;101268.19;;;4.87;86.98
83843;BME280;73869;52.336;21.182;2024-03-06T09:15:40;101266.84;;;4.91;87.94
83843;BME280;73869;52.336;21.182;2024-03-06T09:18:07;101270.06;;;4.95;87.86
83843;BME280;73869;52.336;21.182;2024-03-06T09:20:33;101277.00;;;4.97;86.37
83843;BME280;73869;52.336;21.182;2024-03-06T09:23:00;101273.66;;;5.11;86.67
83843;BME280;73869;52.336;21.182;2024-03-06T09:25:28;101280.25;;;5.17;87.61
83843;BME280;73869;52.336;21.182;2024-03-06T09:27:55;101281.06;;;5.17;85.31
83843;BME280;73869;52.336;21.182;2024-03-06T09:30:23;101276.00;;;5.06;84.82
83843;BME280;73869;52.336;21.182;2024-03-06T09:32:50;101275.13;;;4.98;87.62
83843;BME280;73869;52.336;21.182;2024-03-06T09:35:17;101274.97;;;5.07;86.81
83843;BME280;73869;52.336;21.182;2024-03-06T09:37:45;101277.22;;;5.12;86.30
83843;BME280;73869;52.336;21.182;2024-03-06T09:40:20;101276.53;;;5.10;84.66
83843;BME280;73869;52.336;21.182;2024-03-06T09:45:14;101287.81;;;5.13;84.45
83843;BME280;73869;52.336;21.182;2024-03-06T09:47:43;101290.47;;;5.05;84.70
83843;BME280;73869;52.336;21.182;2024-03-06T09:50:10;101291.81;;;5.09;86.18
83843;BME280;73869;52.336;21.182;2024-03-06T09:52:40;101293.88;;;5.15;85.44
83843;BME280;73869;52.336;21.182;2024-03-06T09:55:09;101294.72;;;5.16;84.74
83843;BME280;73869;52.336;21.182;2024-03-06T09:57:36;101305.66;;;5.14;82.17
83843;BME280;73869;52.336;21.182;2024-03-06T10:00:05;101302.63;;;5.17;83.52
83843;BME280;73869;52.336;21.182;2024-03-06T10:02:38;101295.09;;;5.29;84.77
83843;BME280;73869;52.336;21.182;2024-03-06T10:05:21;101296.94;;;5.20;83.02
83843;BME280;73869;52.336;21.182;2024-03-06T10:07:50;101307.03;;;5.26;85.87
83843;BME280;73869;52.336;21.182;2024-03-06T10:10:18;101308.22;;;5.32;83.50
83843;BME280;73869;52.336;21.182;2024-03-06T10:12:45;101313.97;;;5.37;82.22
83843;BME280;73869;52.336;21.182;2024-03-06T10:15:14;101314.44;;;5.24;82.96
83843;BME280;73869;52.336;21.182;2024-03-06T10:17:41;101315.09;;;5.18;82.71
83843;BME280;73869;52.336;21.182;2024-03-06T10:20:22;101314.56;;;5.15;82.83
83843;BME280;73869;52.336;21.182;2024-03-06T10:22:50;101318.78;;;5.17;83.92
83843;BME280;73869;52.336;21.182;2024-03-06T10:25:18;101321.66;;;5.24;83.45
83843;BME280;73869;52.336;21.182;2024-03-06T10:27:46;101313.22;;;5.19;82.79
83843;BME280;73869;52.336;21.182;2024-03-06T10:30:13;101317.97;;;5.25;84.31
83843;BME280;73869;52.336;21.182;2024-03-06T10:32:42;101327.25;;;5.30;81.78
83843;BME280;73869;52.336;21.182;2024-03-06T10:35:18;101312.75;;;5.23;82.77
83843;BME280;73869;52.336;21.182;2024-03-06T10:37:47;101323.59;;;5.39;83.27
83843;BME280;73869;52.336;21.182;2024-03-06T10:40:15;101323.09;;;5.44;80.89
83843;BME280;73869;52.336;21.182;2024-03-06T10:42:44;101329.16;;;5.46;81.72
83843;BME280;73869;52.336;21.182;2024-03-06T10:45:16;101315.16;;;5.34;79.52
83843;BME280;73869;52.336;21.182;2024-03-06T10:47:46;101327.13;;;5.40;79.76
83843;BME280;73869;52.336;21.182;2024-03-06T10:50:15;101332.72;;;5.55;79.66
83843;BME280;73869;52.336;21.182;2024-03-06T10:52:44;101328.19;;;5.63;80.20
83843;BME280;73869;52.336;21.182;2024-03-06T10:55:15;101327.19;;;5.72;77.90
83843;BME280;73869;52.336;21.182;2024-03-06T10:57:42;101321.34;;;5.85;80.99
83843;BME280;73869;52.336;21.182;2024-03-06T11:00:10;101320.72;;;5.91;77.82
83843;BME280;73869;52.336;21.182;2024-03-06T11:02:42;101320.88;;;6.05;76.81
83843;BME280;73869;52.336;21.182;2024-03-06T11:05:09;101310.09;;;6.05;74.08
83843;BME280;73869;52.336;21.182;2024-03-06T11:07:37;101318.69;;;6.17;72.99
83843;BME280;73869;52.336;21.182;2024-03-06T11:10:04;101310.75;;;6.31;74.33
83843;BME280;73869;52.336;21.182;2024-03-06T11:12:36;101326.59;;;6.42;74.97
83843;BME280;73869;52.336;21.182;2024-03-06T11:15:13;101320.25;;;6.98;76.71
83843;BME280;73869;52.336;21.182;2024-03-06T11:17:40;101317.03;;;6.95;67.60
83843;BME280;73869;52.336;21.182;2024-03-06T11:20:08;101324.50;;;6.84;68.74
83843;BME280;73869;52.336;21.182;2024-03-06T11:23:04;101330.28;;;6.57;70.80
83843;BME280;73869;52.336;21.182;2024-03-06T11:25:56;101322.38;;;6.48;71.22
83843;BME280;73869;52.336;21.182;2024-03-06T11:28:27;101318.69;;;6.33;70.15
83843;BME280;73869;52.336;21.182;2024-03-06T11:30:58;101325.94;;;6.32;69.95
83843;BME280;73869;52.336;21.182;2024-03-06T11:33:34;101319.00;;;6.46;72.69
83843;BME280;73869;52.336;21.182;2024-03-06T11:36:18;101313.63;;;7.01;72.65
83843;BME280;73869;52.336;21.182;2024-03-06T11:38:52;101313.78;;;7.46;68.79
83843;BME280;73869;52.336;21.182;2024-03-06T11:41:20;101299.91;;;7.49;69.19
83843;BME280;73869;52.336;21.182;2024-03-06T11:43:50;101310.69;;;7.26;66.98
83843;BME280;73869;52.336;21.182;2024-03-06T11:46:19;101311.56;;;7.11;69.82
83843;BME280;73869;52.336;21.182;2024-03-06T11:48:52;101307.75;;;6.97;68.34
83843;BME280;73869;52.336;21.182;2024-03-06T11:51:19;101310.31;;;6.82;67.26
83843;BME280;73869;52.336;21.182;2024-03-06T11:53:49;101318.28;;;6.84;67.82
83843;BME280;73869;52.336;21.182;2024-03-06T11:56:17;101321.13;;;6.91;66.41
83843;BME280;73869;52.336;21.182;2024-03-06T11:58:45;101320.63;;;6.87;66.02
83843;BME280;73869;52.336;21.182;2024-03-06T12:01:14;101336.53;;;6.66;66.50
83843;BME280;73869;52.336;21.182;2024-03-06T12:03:41;101320.44;;;6.89;69.85
83843;BME280;73869;52.336;21.182;2024-03-06T12:06:08;101334.31;;;6.69;68.34
83843;BME280;73869;52.336;21.182;2024-03-06T12:08:34;101323.50;;;6.86;67.92
83843;BME280;73869;52.336;21.182;2024-03-06T12:11:02;101331.44;;;6.79;64.78
83843;BME280;73869;52.336;21.182;2024-03-06T12:13:30;101328.25;;;6.67;63.26
83843;BME280;73869;52.336;21.182;2024-03-06T12:15:56;101327.25;;;6.60;66.11
83843;BME280;73869;52.336;21.182;2024-03-06T12:18:25;101327.25;;;6.60;64.87
83843;BME280;73869;52.336;21.182;2024-03-06T12:20:52;101323.03;;;6.66;67.16
83843;BME280;73869;52.336;21.182;2024-03-06T12:23:20;101327.94;;;6.62;67.81
83843;BME280;73869;52.336;21.182;2024-03-06T12:26:02;101330.06;;;6.83;68.80
83843;BME280;73869;52.336;21.182;2024-03-06T12:28:29;101330.28;;;6.65;65.88
83843;BME280;73869;52.336;21.182;2024-03-06T12:30:56;101331.66;;;6.45;65.97
83843;BME280;73869;52.336;21.182;2024-03-06T12:33:27;101331.84;;;6.36;68.94
83843;BME280;73869;52.336;21.182;2024-03-06T12:36:02;101326.94;;;6.47;67.34
83843;BME280;73869;52.336;21.182;2024-03-06T12:38:29;101337.72;;;6.55;68.75
83843;BME280;73869;52.336;21.182;2024-03-06T12:40:56;101329.28;;;6.50;66.77
83843;BME280;73869;52.336;21.182;2024-03-06T12:43:24;101334.31;;;6.69;69.65
83843;BME280;73869;52.336;21.182;2024-03-06T12:45:51;101338.69;;;6.78;67.02
83843;BME280;73869;52.336;21.182;2024-03-06T12:48:20;101332.31;;;6.47;65.49
83843;BME280;73869;52.336;21.182;2024-03-06T12:50:48;101339.25;;;6.34;65.60